createdAt,value
2023-04-28T00:02:30.132Z,15.10
2023-04-28T00:05:05.807Z,15.60
2023-04-28T00:07:37.421Z,16.47
2023-04-28T00:10:07.905Z,13.80
2023-04-28T00:12:39.753Z,14.47
2023-04-28T00:15:16.053Z,14.70
2023-04-28T00:17:47.577Z,12.47
2023-04-28T00:20:24.694Z,21.53
2023-04-28T00:23:01.537Z,18.30
2023-04-28T00:25:43.093Z,15.90
2023-04-28T00:28:32.845Z,18.37
2023-04-28T00:31:13.952Z,16.87
2023-04-28T00:33:49.046Z,17.43
2023-04-28T00:36:34.577Z,17.37
2023-04-28T00:39:05.053Z,16.37
2023-04-28T00:41:39.604Z,13.93
2023-04-28T00:44:25.519Z,12.90
2023-04-28T00:47:03.470Z,16.93
2023-04-28T00:49:42.739Z,16.43
2023-04-28T00:52:20.318Z,13.90
2023-04-28T00:54:57.470Z,13.93
2023-04-28T00:57:27.735Z,16.23
2023-04-28T01:00:03.710Z,13.50
2023-04-28T01:02:36.315Z,14.30
2023-04-28T01:05:13.593Z,14.90
2023-04-28T01:07:53.918Z,14.47
2023-04-28T01:10:36.539Z,13.20
2023-04-28T01:13:23.351Z,16.43
2023-04-28T01:16:00.356Z,14.30
2023-04-28T01:18:33.303Z,14.20
2023-04-28T01:21:02.161Z,20.33
2023-04-28T01:23:31.661Z,12.77
2023-04-28T01:26:06.732Z,15.77
2023-04-28T01:28:40.541Z,15.20
2023-04-28T01:31:14.577Z,14.07
2023-04-28T01:33:52.210Z,17.70
2023-04-28T01:36:25.740Z,16.00
2023-04-28T01:38:59.725Z,19.80
2023-04-28T01:41:36.676Z,15.77
2023-04-28T01:44:11.117Z,14.07
2023-04-28T01:46:45.021Z,13.17
2023-04-28T01:49:17.055Z,21.57
2023-04-28T01:51:56.646Z,16.27
2023-04-28T01:54:34.216Z,17.40
2023-04-28T01:57:12.207Z,18.00
2023-04-28T01:59:42.095Z,14.37
2023-04-28T02:02:16.458Z,15.60
2023-04-28T02:04:48.147Z,26.73
2023-04-28T02:07:24.136Z,15.73
2023-04-28T02:10:00.274Z,15.60
2023-04-28T02:12:43.375Z,18.00
2023-04-28T02:15:20.094Z,14.77
2023-04-28T02:17:54.485Z,15.10
2023-04-28T02:20:29.630Z,13.73
2023-04-28T02:23:04.482Z,15.30
2023-04-28T02:25:34.926Z,17.60
2023-04-28T02:28:27.525Z,14.43
2023-04-28T02:31:10.691Z,14.10
2023-04-28T02:33:48.589Z,18.83
2023-04-28T02:36:19.690Z,14.87
2023-04-28T02:38:59.104Z,16.90
2023-04-28T02:41:40.399Z,20.60
2023-04-28T02:44:22.192Z,13.97
2023-04-28T02:46:58.288Z,14.00
2023-04-28T02:49:37.921Z,15.97
2023-04-28T02:52:16.039Z,15.40
2023-04-28T02:54:49.677Z,16.23
2023-04-28T02:57:21.520Z,14.80
2023-04-28T02:59:55.662Z,12.70
2023-04-28T03:02:35.254Z,14.40
2023-04-28T03:05:15.547Z,16.33
2023-04-28T03:07:56.257Z,17.40
2023-04-28T03:10:28.300Z,16.13
2023-04-28T03:13:05.007Z,14.73
2023-04-28T03:15:39.221Z,13.33
2023-04-28T03:18:14.234Z,11.83
2023-04-28T03:20:47.458Z,14.77
2023-04-28T03:23:26.485Z,17.90
2023-04-28T03:25:59.830Z,14.53
2023-04-28T03:28:36.857Z,13.40
2023-04-28T03:31:15.366Z,12.47
2023-04-28T03:33:49.749Z,10.77
2023-04-28T03:36:35.817Z,12.63
2023-04-28T03:39:17.623Z,13.60
2023-04-28T03:41:56.344Z,17.13
2023-04-28T03:44:59.888Z,13.63
2023-04-28T03:47:32.585Z,15.33
2023-04-28T03:50:07.473Z,13.57
2023-04-28T03:52:47.230Z,15.00
2023-04-28T03:55:20.805Z,14.90
2023-04-28T03:57:51.629Z,16.10
2023-04-28T04:00:24.714Z,12.93
2023-04-28T04:03:03.408Z,13.57
2023-04-28T04:05:40.974Z,22.67
2023-04-28T04:08:12.375Z,15.77
2023-04-28T04:10:49.849Z,18.20
2023-04-28T04:13:25.453Z,13.80
2023-04-28T04:16:05.635Z,13.30
2023-04-28T04:18:40.203Z,16.27
2023-04-28T04:21:28.690Z,17.83
2023-04-28T04:24:05.503Z,16.33
2023-04-28T04:26:40.011Z,15.97
2023-04-28T04:29:35.852Z,15.90
2023-04-28T04:32:18.611Z,15.23
2023-04-28T04:34:50.699Z,13.90
2023-04-28T04:37:26.340Z,15.60
2023-04-28T04:40:07.205Z,18.40
2023-04-28T04:43:06.644Z,18.60
2023-04-28T04:45:48.700Z,17.27
2023-04-28T04:48:22.740Z,16.40
2023-04-28T04:51:06.003Z,15.23
2023-04-28T04:53:36.078Z,14.93
2023-04-28T04:56:10.166Z,23.60
2023-04-28T04:58:44.314Z,22.10
2023-04-28T05:01:42.143Z,17.80
2023-04-28T05:04:16.427Z,17.57
2023-04-28T05:06:50.243Z,14.40
2023-04-28T05:09:32.784Z,14.00
2023-04-28T05:12:17.826Z,16.97
2023-04-28T05:14:52.262Z,18.70
2023-04-28T05:17:34.174Z,19.30
2023-04-28T05:20:12.757Z,16.20
2023-04-28T05:22:45.313Z,16.50
2023-04-28T05:25:21.826Z,16.67
2023-04-28T05:27:55.933Z,20.23
2023-04-28T05:30:31.987Z,18.00
2023-04-28T05:33:04.915Z,18.20
2023-04-28T05:35:34.194Z,19.10
2023-04-28T05:38:07.055Z,21.57
2023-04-28T05:40:39.396Z,21.37
2023-04-28T05:43:18.911Z,20.00
2023-04-28T05:45:53.461Z,19.13
2023-04-28T05:48:24.628Z,20.97
2023-04-28T05:51:04.851Z,19.50
2023-04-28T05:53:36.930Z,18.30
2023-04-28T05:56:12.810Z,17.67
2023-04-28T05:58:53.891Z,18.00
2023-04-28T06:01:32.614Z,18.40
2023-04-28T06:04:07.106Z,21.30
2023-04-28T06:06:41.406Z,19.80
2023-04-28T06:09:18.902Z,22.80
2023-04-28T06:11:56.056Z,22.07
2023-04-28T06:14:28.977Z,22.00
2023-04-28T06:17:02.978Z,22.03
2023-04-28T06:19:36.812Z,22.93
2023-04-28T06:22:17.899Z,19.20
2023-04-28T06:24:56.244Z,21.73
2023-04-28T06:27:38.974Z,19.07
2023-04-28T06:30:21.536Z,21.40
2023-04-28T06:33:03.117Z,21.47
2023-04-28T06:35:39.221Z,23.60
2023-04-28T06:38:14.585Z,23.73
2023-04-28T06:40:49.087Z,20.50
2023-04-28T06:43:20.035Z,24.03
2023-04-28T06:46:08.709Z,21.07
2023-04-28T06:48:45.508Z,24.63
2023-04-28T06:51:20.661Z,26.10
2023-04-28T06:54:00.900Z,21.87
2023-04-28T06:56:39.682Z,25.87
2023-04-28T06:59:11.600Z,22.60
2023-04-28T07:01:42.116Z,21.87
2023-04-28T07:04:19.811Z,23.77
2023-04-28T07:06:50.632Z,28.13
2023-04-28T07:09:26.630Z,23.57
2023-04-28T07:12:02.307Z,23.47
2023-04-28T07:14:36.201Z,24.43
2023-04-28T07:17:19.106Z,23.37
2023-04-28T07:19:55.913Z,25.73
2023-04-28T07:22:28.969Z,25.50
2023-04-28T07:25:00.170Z,21.33
2023-04-28T07:27:39.801Z,21.90
2023-04-28T07:32:59.961Z,24.80
2023-04-28T07:35:31.307Z,25.13
2023-04-28T07:38:01.081Z,24.90
2023-04-28T07:40:37.630Z,28.70
2023-04-28T07:43:09.952Z,34.77
2023-04-28T07:45:48.223Z,28.77
2023-04-28T07:48:21.517Z,26.80
2023-04-28T07:51:00.723Z,37.07
2023-04-28T07:53:36.560Z,35.90
2023-04-28T07:56:16.476Z,42.53
2023-04-28T07:58:53.908Z,32.97
2023-04-28T08:01:35.985Z,36.80
2023-04-28T08:04:15.524Z,32.73
2023-04-28T08:06:55.778Z,38.83
2023-04-28T08:09:31.180Z,41.13
2023-04-28T08:12:01.787Z,34.53
2023-04-28T08:14:38.140Z,41.23
2023-04-28T08:17:15.340Z,37.23
2023-04-28T08:19:49.076Z,36.50
2023-04-28T08:22:23.236Z,35.67
2023-04-28T08:25:03.087Z,39.13
2023-04-28T08:27:40.720Z,28.30
2023-04-28T08:30:17.732Z,27.47
2023-04-28T08:32:51.061Z,33.20
2023-04-28T08:35:28.074Z,29.43
2023-04-28T08:37:58.810Z,30.30
2023-04-28T08:40:35.650Z,31.27
2023-04-28T08:43:09.268Z,44.03
2023-04-28T08:45:48.519Z,41.10
2023-04-28T08:48:26.267Z,37.70
2023-04-28T08:51:01.012Z,40.93
2023-04-28T08:53:52.212Z,42.43
2023-04-28T08:56:41.792Z,37.47
2023-04-28T08:59:16.317Z,42.87
2023-04-28T09:01:56.832Z,42.87
2023-04-28T09:04:38.611Z,52.93
2023-04-28T09:07:19.330Z,51.60
2023-04-28T09:09:57.521Z,46.07
2023-04-28T09:12:44.111Z,37.70
2023-04-28T09:15:30.622Z,31.77
2023-04-28T09:18:21.487Z,36.60
2023-04-28T09:21:01.891Z,31.47
2023-04-28T09:23:34.401Z,29.83
2023-04-28T09:26:11.028Z,26.93
2023-04-28T09:28:45.088Z,26.13
2023-04-28T09:31:38.344Z,24.13
2023-04-28T09:34:16.621Z,30.70
2023-04-28T09:36:52.346Z,28.97
2023-04-28T09:39:36.158Z,26.00
2023-04-28T09:42:13.162Z,29.20
2023-04-28T09:44:53.834Z,27.67
2023-04-28T09:47:35.337Z,30.00
2023-04-28T09:50:17.654Z,29.07
2023-04-28T09:53:03.527Z,28.97
2023-04-28T09:55:38.853Z,33.83
2023-04-28T09:58:16.722Z,26.10
2023-04-28T10:00:51.144Z,27.87
2023-04-28T10:03:34.251Z,33.00
2023-04-28T10:06:13.233Z,33.37
2023-04-28T10:08:44.030Z,26.40
2023-04-28T10:11:18.627Z,27.63
2023-04-28T10:14:03.740Z,27.60
2023-04-28T10:16:44.910Z,27.00
2023-04-28T10:19:25.250Z,31.70
2023-04-28T10:22:35.128Z,35.90
2023-04-28T10:25:31.307Z,29.60
2023-04-28T10:28:07.079Z,29.80
2023-04-28T10:30:39.467Z,33.17
2023-04-28T10:33:30.294Z,31.40
2023-04-28T10:36:10.128Z,30.40
2023-04-28T10:39:32.021Z,33.53
2023-04-28T10:42:06.187Z,32.57
2023-04-28T10:44:46.534Z,29.87
2023-04-28T10:47:26.345Z,37.43
2023-04-28T10:50:13.407Z,29.40
2023-04-28T10:52:56.855Z,26.03
2023-04-28T10:55:47.072Z,28.03
2023-04-28T10:58:48.008Z,31.03
2023-04-28T11:01:33.861Z,33.47
2023-04-28T11:04:16.178Z,27.33
2023-04-28T11:06:52.978Z,35.07
2023-04-28T11:10:01.630Z,27.40
2023-04-28T11:13:36.619Z,28.43
2023-04-28T11:16:25.917Z,28.03
2023-04-28T11:19:05.588Z,28.00
2023-04-28T11:21:38.396Z,30.33
2023-04-28T11:24:17.448Z,30.07
2023-04-28T11:26:57.074Z,28.00
2023-04-28T11:29:39.444Z,28.60
2023-04-28T11:32:15.721Z,30.47
2023-04-28T11:34:54.635Z,29.50
2023-04-28T11:37:30.657Z,28.97
2023-04-28T11:40:03.681Z,31.70
2023-04-28T11:42:44.020Z,27.60
2023-04-28T11:45:25.135Z,31.80
2023-04-28T11:48:06.202Z,25.63
2023-04-28T11:50:43.123Z,27.53
2023-04-28T11:53:13.451Z,30.40
2023-04-28T11:55:43.896Z,34.73
2023-04-28T11:58:29.835Z,32.10
2023-04-28T12:01:12.863Z,33.00
2023-04-28T12:03:49.133Z,33.17
2023-04-28T12:06:23.249Z,33.20
2023-04-28T12:09:07.997Z,37.23
2023-04-28T12:11:41.782Z,32.37
2023-04-28T12:14:20.036Z,32.40
2023-04-28T12:16:51.198Z,28.00
2023-04-28T12:19:51.707Z,27.90
2023-04-28T12:22:26.298Z,32.10
2023-04-28T12:25:11.102Z,27.00
2023-04-28T12:27:42.253Z,29.97
2023-04-28T12:30:37.534Z,28.60
2023-04-28T12:33:26.881Z,26.37
2023-04-28T12:36:08.923Z,25.70
2023-04-28T12:38:39.826Z,25.13
2023-04-28T12:41:21.972Z,28.57
2023-04-28T12:44:02.758Z,26.87
2023-04-28T12:46:35.278Z,30.87
2023-04-28T12:49:11.502Z,30.73
2023-04-28T12:51:43.247Z,28.47
2023-04-28T12:54:20.756Z,29.00
2023-04-28T12:56:57.159Z,28.77
2023-04-28T12:59:31.476Z,30.50
2023-04-28T13:02:05.657Z,26.50
2023-04-28T13:04:36.944Z,21.70
2023-04-28T13:07:17.795Z,21.10
2023-04-28T13:09:47.953Z,20.50
2023-04-28T13:12:16.708Z,22.83
2023-04-28T13:14:48.058Z,19.33
2023-04-28T13:17:36.853Z,23.50
2023-04-28T13:20:16.908Z,16.43
2023-04-28T13:22:49.295Z,16.80
2023-04-28T13:25:20.766Z,18.70
2023-04-28T13:27:59.045Z,16.17
2023-04-28T13:30:42.483Z,52.67
2023-04-28T13:33:14.667Z,25.43
2023-04-28T13:35:46.020Z,19.57
2023-04-28T13:38:32.814Z,30.37
2023-04-28T13:41:13.753Z,21.77
2023-04-28T13:43:49.554Z,14.40
2023-04-28T13:46:25.507Z,12.23
2023-04-28T13:49:01.213Z,11.20
2023-04-28T13:51:35.228Z,10.57
2023-04-28T13:54:13.557Z,13.50
2023-04-28T13:56:48.409Z,12.80
2023-04-28T13:59:30.996Z,11.00
2023-04-28T14:02:08.067Z,12.23
2023-04-28T14:04:38.140Z,13.87
2023-04-28T14:07:13.818Z,11.50
2023-04-28T14:09:59.298Z,10.43
2023-04-28T14:12:35.688Z,10.57
2023-04-28T14:15:13.627Z,10.07
2023-04-28T14:17:45.774Z,9.87
2023-04-28T14:20:20.511Z,11.47
2023-04-28T14:22:53.241Z,8.40
2023-04-28T14:25:28.214Z,8.30
2023-04-28T14:28:01.547Z,8.37
2023-04-28T14:30:41.168Z,8.60
2023-04-28T14:33:14.503Z,6.53
2023-04-28T14:35:47.812Z,6.50
2023-04-28T14:38:21.860Z,7.37
2023-04-28T14:41:04.247Z,7.37
2023-04-28T14:43:40.794Z,5.60
2023-04-28T14:46:12.193Z,5.30
2023-04-28T14:48:42.884Z,6.73
2023-04-28T14:51:12.361Z,5.53
2023-04-28T14:53:44.074Z,6.53
2023-04-28T14:56:29.368Z,5.90
2023-04-28T14:59:08.798Z,5.67
2023-04-28T15:01:42.131Z,6.90
2023-04-28T15:04:20.419Z,4.90
2023-04-28T15:06:59.247Z,4.93
2023-04-28T15:09:37.373Z,5.60
2023-04-28T15:12:08.859Z,4.70
2023-04-28T15:14:41.809Z,6.00
2023-04-28T15:17:17.889Z,5.17
2023-04-28T15:20:02.293Z,5.00
2023-04-28T15:22:35.113Z,4.53
2023-04-28T15:25:06.117Z,4.63
2023-04-28T15:27:53.423Z,5.40
2023-04-28T15:30:29.886Z,5.07
2023-04-28T15:33:15.101Z,4.03
2023-04-28T15:35:54.932Z,4.20
2023-04-28T15:41:11.906Z,5.20
2023-04-28T15:43:51.505Z,4.80
2023-04-28T15:46:31.285Z,4.90
2023-04-28T15:49:08.283Z,3.90
2023-04-28T15:51:41.226Z,4.00
2023-04-28T15:54:20.628Z,3.90
2023-04-28T15:56:55.199Z,3.40
2023-04-28T15:59:31.021Z,3.87
2023-04-28T16:02:03.345Z,3.90
2023-04-28T16:04:33.263Z,4.30
2023-04-28T16:07:06.460Z,4.37
2023-04-28T16:09:39.987Z,3.63
2023-04-28T16:12:10.654Z,6.00
2023-04-28T16:14:58.818Z,6.27
2023-04-28T16:17:29.876Z,5.50
2023-04-28T16:20:03.399Z,6.07
2023-04-28T16:22:44.478Z,4.93
2023-04-28T16:25:21.111Z,4.83
2023-04-28T16:27:53.539Z,4.70
2023-04-28T16:30:28.483Z,5.33
2023-04-28T16:33:03.709Z,6.97
2023-04-28T16:38:17.609Z,16.40
2023-04-28T16:40:49.187Z,9.73
2023-04-28T16:43:21.756Z,5.60
2023-04-28T16:46:11.144Z,5.97
2023-04-28T16:48:48.049Z,4.97
2023-04-28T16:51:24.095Z,4.53
2023-04-28T16:54:04.000Z,4.33
2023-04-28T16:56:44.351Z,7.53
2023-04-28T16:59:15.001Z,4.20
2023-04-28T17:01:57.040Z,3.90
2023-04-28T17:04:40.268Z,4.10
2023-04-28T17:07:11.862Z,3.77
2023-04-28T17:09:49.502Z,4.00
2023-04-28T17:12:23.785Z,5.07
2023-04-28T17:15:00.205Z,4.30
2023-04-28T17:17:50.669Z,4.83
2023-04-28T17:20:22.329Z,4.00
2023-04-28T17:22:58.156Z,6.10
2023-04-28T17:25:29.900Z,8.30
2023-04-28T17:28:04.631Z,5.37
2023-04-28T17:30:38.198Z,4.17
2023-04-28T17:33:35.425Z,4.30
2023-04-28T17:36:14.115Z,4.53
2023-04-28T17:38:48.366Z,4.13
2023-04-28T17:41:17.536Z,4.53
2023-04-28T17:43:49.474Z,6.03
2023-04-28T17:46:20.402Z,4.30
2023-04-28T17:48:59.019Z,59.57
2023-04-28T17:51:36.480Z,61.57
2023-04-28T17:54:15.489Z,34.10
2023-04-28T17:56:51.521Z,7.17
2023-04-28T17:59:30.146Z,8.03
2023-04-28T18:02:04.772Z,3.70
2023-04-28T18:04:41.931Z,4.43
2023-04-28T18:07:14.636Z,5.70
2023-04-28T18:09:44.343Z,4.70
2023-04-28T18:12:15.004Z,3.83
2023-04-28T18:14:57.036Z,5.30
2023-04-28T18:17:38.673Z,5.87
2023-04-28T18:20:19.791Z,4.40
2023-04-28T18:22:50.996Z,3.83
2023-04-28T18:25:25.345Z,4.83
2023-04-28T18:28:12.106Z,4.10
2023-04-28T18:30:40.513Z,5.43
2023-04-28T18:33:11.490Z,5.13
2023-04-28T18:35:47.362Z,4.43
2023-04-28T18:38:18.442Z,4.57
2023-04-28T18:40:54.582Z,5.30
2023-04-28T18:43:35.100Z,4.27
2023-04-28T18:46:09.082Z,4.27
2023-04-28T18:48:44.912Z,4.40
2023-04-28T18:51:19.597Z,6.83
2023-04-28T18:53:59.619Z,4.33
2023-04-28T18:56:38.687Z,6.07
2023-04-28T18:59:09.420Z,4.47
2023-04-28T19:01:45.944Z,4.73
2023-04-28T19:04:16.147Z,6.00
2023-04-28T19:06:53.065Z,5.23
2023-04-28T19:09:37.928Z,6.20
2023-04-28T19:12:11.433Z,6.23
2023-04-28T19:14:44.874Z,4.50
2023-04-28T19:17:16.134Z,4.53
2023-04-28T19:19:58.177Z,4.67
2023-04-28T19:22:50.151Z,4.57
2023-04-28T19:25:29.122Z,4.43
2023-04-28T19:28:06.497Z,5.83
2023-04-28T19:30:41.578Z,5.30
2023-04-28T19:33:15.219Z,5.43
2023-04-28T19:35:51.564Z,6.77
2023-04-28T19:38:30.416Z,7.40
2023-04-28T19:41:08.083Z,11.50
2023-04-28T19:43:40.679Z,7.50
2023-04-28T19:46:16.034Z,5.70
2023-04-28T19:48:52.973Z,6.90
2023-04-28T19:51:30.490Z,8.00
2023-04-28T19:54:05.964Z,5.30
2023-04-28T19:56:37.986Z,9.00
2023-04-28T19:59:11.391Z,6.53
2023-04-28T20:01:50.980Z,6.27
2023-04-28T20:04:20.964Z,5.20
2023-04-28T20:06:51.850Z,7.00
2023-04-28T20:09:28.649Z,6.13
2023-04-28T20:12:02.857Z,7.90
2023-04-28T20:14:33.632Z,5.33
2023-04-28T20:17:14.437Z,5.87
2023-04-28T20:19:48.976Z,5.97
2023-04-28T20:22:29.471Z,6.13
2023-04-28T20:25:09.057Z,6.57
2023-04-28T20:27:38.835Z,5.30
2023-04-28T20:30:14.047Z,7.47
2023-04-28T20:32:48.066Z,12.97
2023-04-28T20:35:23.493Z,12.30
2023-04-28T20:37:56.689Z,10.90
2023-04-28T20:40:48.605Z,9.43
2023-04-28T20:43:21.749Z,6.70
2023-04-28T20:45:55.623Z,7.87
2023-04-28T20:48:42.882Z,6.90
2023-04-28T20:51:22.214Z,8.50
2023-04-28T20:53:56.221Z,9.60
2023-04-28T20:56:40.067Z,9.47
2023-04-28T20:59:17.927Z,13.43
2023-04-28T21:01:47.849Z,9.03
2023-04-28T21:04:20.451Z,7.67
2023-04-28T21:06:54.627Z,13.37
2023-04-28T21:09:29.264Z,12.83
2023-04-28T21:12:12.022Z,6.67
2023-04-28T21:14:58.875Z,7.67
2023-04-28T21:17:34.724Z,7.07
2023-04-28T21:20:05.177Z,8.80
2023-04-28T21:22:37.575Z,7.87
2023-04-28T21:25:11.763Z,9.67
2023-04-28T21:27:50.363Z,11.67
2023-04-28T21:30:29.556Z,9.90
2023-04-28T21:33:06.503Z,16.27
2023-04-28T21:35:43.660Z,10.03
2023-04-28T21:38:19.029Z,9.67
2023-04-28T21:41:03.894Z,6.77
2023-04-28T21:43:48.161Z,7.87
2023-04-28T21:46:21.953Z,6.67
2023-04-28T21:48:54.771Z,5.70
2023-04-28T21:51:26.869Z,6.80
2023-04-28T21:53:56.428Z,7.77
2023-04-28T21:56:30.254Z,6.90
2023-04-28T21:59:08.613Z,6.80
2023-04-28T22:01:38.878Z,7.77
2023-04-28T22:04:12.139Z,4.93
2023-04-28T22:06:47.132Z,20.90
2023-04-28T22:09:32.410Z,29.63
2023-04-28T22:12:17.548Z,14.73
2023-04-28T22:15:03.797Z,47.70
2023-04-28T22:17:41.449Z,28.03
2023-04-28T22:20:16.972Z,15.43
2023-04-28T22:22:47.221Z,15.50
2023-04-28T22:25:19.766Z,12.17
2023-04-28T22:27:52.519Z,10.57
2023-04-28T22:30:27.766Z,13.30
2023-04-28T22:32:59.547Z,9.47
2023-04-28T22:35:32.722Z,9.67
2023-04-28T22:38:06.457Z,10.17
2023-04-28T22:40:39.986Z,11.23
2023-04-28T22:43:17.722Z,9.87
2023-04-28T22:45:55.522Z,8.93
2023-04-28T22:48:28.034Z,10.27
2023-04-28T22:50:59.250Z,10.37
2023-04-28T22:53:29.775Z,8.10
2023-04-28T22:56:03.466Z,7.80
2023-04-28T22:58:37.353Z,7.90
2023-04-28T23:01:23.563Z,12.33
2023-04-28T23:03:57.476Z,10.23
2023-04-28T23:06:37.179Z,8.60
2023-04-28T23:09:08.215Z,15.53
2023-04-28T23:11:49.582Z,16.30
2023-04-28T23:14:29.868Z,10.27
2023-04-28T23:17:03.988Z,12.33
2023-04-28T23:19:43.681Z,11.60
2023-04-28T23:22:23.601Z,13.10
2023-04-28T23:24:55.156Z,7.33
2023-04-28T23:27:25.851Z,8.03
2023-04-28T23:29:59.435Z,9.73
2023-04-28T23:32:51.269Z,7.40
2023-04-28T23:35:28.914Z,11.73
2023-04-28T23:37:59.786Z,8.33
2023-04-28T23:40:30.854Z,8.30
2023-04-28T23:43:09.121Z,8.70
2023-04-28T23:45:40.677Z,9.43
2023-04-28T23:48:21.454Z,7.27
2023-04-28T23:50:52.097Z,8.70
2023-04-28T23:53:31.068Z,7.03
2023-04-28T23:56:09.086Z,7.20
2023-04-28T23:58:44.005Z,6.47
